sensor_id;sensor_type;location;lat;lon;timestamp;P1;durP1;ratioP1;P2;durP2;ratioP2
43823;SDS011;29470;53.550;9.926;2023-01-24T00:03:02;27.10;;;13.55;;
43823;SDS011;29470;53.550;9.926;2023-01-24T00:08:05;30.95;;;13.70;;
43823;SDS011;29470;53.550;9.926;2023-01-24T00:13:09;30.10;;;14.32;;
43823;SDS011;29470;53.550;9.926;2023-01-24T00:18:14;29.70;;;13.48;;
43823;SDS011;29470;53.550;9.926;2023-01-24T00:23:16;28.23;;;12.75;;
43823;SDS011;29470;53.550;9.926;2023-01-24T00:28:19;28.27;;;13.38;;
43823;SDS011;29470;53.550;9.926;2023-01-24T00:33:23;32.33;;;13.25;;
43823;SDS011;29470;53.550;9.926;2023-01-24T00:38:28;32.03;;;13.80;;
43823;SDS011;29470;53.550;9.926;2023-01-24T00:43:31;31.58;;;13.43;;
43823;SDS011;29470;53.550;9.926;2023-01-24T00:48:36;33.63;;;13.18;;
43823;SDS011;29470;53.550;9.926;2023-01-24T00:53:39;28.92;;;12.68;;
43823;SDS011;29470;53.550;9.926;2023-01-24T00:58:42;31.13;;;13.57;;
43823;SDS011;29470;53.550;9.926;2023-01-24T01:03:46;33.30;;;13.88;;
43823;SDS011;29470;53.550;9.926;2023-01-24T01:08:49;32.97;;;14.00;;
43823;SDS011;29470;53.550;9.926;2023-01-24T01:13:53;32.17;;;13.27;;
43823;SDS011;29470;53.550;9.926;2023-01-24T01:18:58;30.70;;;12.82;;
43823;SDS011;29470;53.550;9.926;2023-01-24T01:24:01;32.95;;;13.68;;
43823;SDS011;29470;53.550;9.926;2023-01-24T01:29:04;25.67;;;11.88;;
43823;SDS011;29470;53.550;9.926;2023-01-24T01:34:09;29.00;;;12.93;;
43823;SDS011;29470;53.550;9.926;2023-01-24T01:39:12;26.83;;;12.15;;
43823;SDS011;29470;53.550;9.926;2023-01-24T01:44:16;30.42;;;12.68;;
43823;SDS011;29470;53.550;9.926;2023-01-24T01:49:39;33.25;;;13.57;;
43823;SDS011;29470;53.550;9.926;2023-01-24T01:54:46;29.05;;;13.00;;
43823;SDS011;29470;53.550;9.926;2023-01-24T01:59:52;27.50;;;13.07;;
43823;SDS011;29470;53.550;9.926;2023-01-24T02:05:01;31.40;;;12.90;;
43823;SDS011;29470;53.550;9.926;2023-01-24T02:10:07;30.10;;;13.32;;
43823;SDS011;29470;53.550;9.926;2023-01-24T02:15:12;28.92;;;13.20;;
43823;SDS011;29470;53.550;9.926;2023-01-24T02:20:37;25.42;;;11.57;;
43823;SDS011;29470;53.550;9.926;2023-01-24T02:25:44;26.80;;;13.05;;
43823;SDS011;29470;53.550;9.926;2023-01-24T02:30:51;29.75;;;12.85;;
43823;SDS011;29470;53.550;9.926;2023-01-24T02:36:00;18.83;;;9.02;;
43823;SDS011;29470;53.550;9.926;2023-01-24T02:41:15;25.70;;;11.35;;
43823;SDS011;29470;53.550;9.926;2023-01-24T02:46:23;26.70;;;12.05;;
43823;SDS011;29470;53.550;9.926;2023-01-24T02:51:26;27.80;;;12.55;;
43823;SDS011;29470;53.550;9.926;2023-01-24T02:56:46;22.73;;;10.52;;
43823;SDS011;29470;53.550;9.926;2023-01-24T03:02:08;27.13;;;11.85;;
43823;SDS011;29470;53.550;9.926;2023-01-24T03:07:11;26.95;;;11.80;;
43823;SDS011;29470;53.550;9.926;2023-01-24T03:12:21;26.85;;;12.60;;
43823;SDS011;29470;53.550;9.926;2023-01-24T03:17:42;28.98;;;12.00;;
43823;SDS011;29470;53.550;9.926;2023-01-24T03:23:03;25.38;;;12.20;;
43823;SDS011;29470;53.550;9.926;2023-01-24T03:28:23;27.52;;;12.52;;
43823;SDS011;29470;53.550;9.926;2023-01-24T03:33:45;27.35;;;12.18;;
43823;SDS011;29470;53.550;9.926;2023-01-24T03:39:06;27.90;;;12.15;;
43823;SDS011;29470;53.550;9.926;2023-01-24T03:44:26;24.88;;;11.48;;
43823;SDS011;29470;53.550;9.926;2023-01-24T03:49:31;29.08;;;12.55;;
43823;SDS011;29470;53.550;9.926;2023-01-24T03:54:52;26.60;;;11.82;;
43823;SDS011;29470;53.550;9.926;2023-01-24T03:59:55;27.77;;;12.15;;
43823;SDS011;29470;53.550;9.926;2023-01-24T04:04:59;26.45;;;11.68;;
43823;SDS011;29470;53.550;9.926;2023-01-24T04:10:18;24.50;;;11.75;;
43823;SDS011;29470;53.550;9.926;2023-01-24T04:15:24;27.10;;;11.60;;
43823;SDS011;29470;53.550;9.926;2023-01-24T04:20:46;24.42;;;11.30;;
43823;SDS011;29470;53.550;9.926;2023-01-24T04:25:50;27.10;;;11.52;;
43823;SDS011;29470;53.550;9.926;2023-01-24T04:30:56;29.75;;;11.45;;
43823;SDS011;29470;53.550;9.926;2023-01-24T04:36:19;21.67;;;10.38;;
43823;SDS011;29470;53.550;9.926;2023-01-24T04:41:22;21.45;;;10.40;;
43823;SDS011;29470;53.550;9.926;2023-01-24T04:46:27;21.75;;;10.43;;
43823;SDS011;29470;53.550;9.926;2023-01-24T04:51:32;23.83;;;10.70;;
43823;SDS011;29470;53.550;9.926;2023-01-24T04:56:38;21.37;;;10.83;;
43823;SDS011;29470;53.550;9.926;2023-01-24T05:01:41;19.65;;;10.07;;
43823;SDS011;29470;53.550;9.926;2023-01-24T05:07:14;19.80;;;9.88;;
43823;SDS011;29470;53.550;9.926;2023-01-24T05:12:22;20.98;;;9.18;;
43823;SDS011;29470;53.550;9.926;2023-01-24T05:17:27;16.67;;;8.68;;
43823;SDS011;29470;53.550;9.926;2023-01-24T05:22:32;14.55;;;7.38;;
43823;SDS011;29470;53.550;9.926;2023-01-24T05:27:35;15.90;;;8.63;;
43823;SDS011;29470;53.550;9.926;2023-01-24T05:32:38;19.27;;;8.80;;
43823;SDS011;29470;53.550;9.926;2023-01-24T05:37:43;19.08;;;9.60;;
43823;SDS011;29470;53.550;9.926;2023-01-24T05:42:47;21.58;;;9.60;;
43823;SDS011;29470;53.550;9.926;2023-01-24T05:47:50;20.27;;;9.02;;
43823;SDS011;29470;53.550;9.926;2023-01-24T05:52:55;18.95;;;9.45;;
43823;SDS011;29470;53.550;9.926;2023-01-24T05:57:58;14.02;;;7.82;;
43823;SDS011;29470;53.550;9.926;2023-01-24T06:03:08;14.02;;;7.55;;
43823;SDS011;29470;53.550;9.926;2023-01-24T06:08:13;14.90;;;7.85;;
43823;SDS011;29470;53.550;9.926;2023-01-24T06:13:17;15.35;;;7.70;;
43823;SDS011;29470;53.550;9.926;2023-01-24T06:18:20;14.73;;;7.53;;
43823;SDS011;29470;53.550;9.926;2023-01-24T06:23:26;14.25;;;7.47;;
43823;SDS011;29470;53.550;9.926;2023-01-24T06:28:33;14.07;;;7.35;;
43823;SDS011;29470;53.550;9.926;2023-01-24T06:33:39;13.48;;;6.85;;
43823;SDS011;29470;53.550;9.926;2023-01-24T06:38:55;16.45;;;8.00;;
43823;SDS011;29470;53.550;9.926;2023-01-24T06:43:59;15.20;;;7.70;;
43823;SDS011;29470;53.550;9.926;2023-01-24T06:49:01;12.45;;;6.95;;
43823;SDS011;29470;53.550;9.926;2023-01-24T06:54:06;13.60;;;7.35;;
43823;SDS011;29470;53.550;9.926;2023-01-24T06:59:09;15.25;;;7.63;;
43823;SDS011;29470;53.550;9.926;2023-01-24T07:04:12;13.43;;;7.38;;
43823;SDS011;29470;53.550;9.926;2023-01-24T07:09:16;20.55;;;7.90;;
43823;SDS011;29470;53.550;9.926;2023-01-24T07:14:19;15.88;;;8.55;;
43823;SDS011;29470;53.550;9.926;2023-01-24T07:19:22;14.88;;;8.43;;
43823;SDS011;29470;53.550;9.926;2023-01-24T07:24:28;18.58;;;7.70;;
43823;SDS011;29470;53.550;9.926;2023-01-24T07:29:32;17.67;;;7.78;;
43823;SDS011;29470;53.550;9.926;2023-01-24T07:34:35;15.23;;;7.88;;
43823;SDS011;29470;53.550;9.926;2023-01-24T07:39:39;14.55;;;9.00;;
43823;SDS011;29470;53.550;9.926;2023-01-24T07:44:42;16.70;;;8.80;;
43823;SDS011;29470;53.550;9.926;2023-01-24T07:49:45;12.38;;;6.70;;
43823;SDS011;29470;53.550;9.926;2023-01-24T07:54:50;15.88;;;7.90;;
43823;SDS011;29470;53.550;9.926;2023-01-24T07:59:52;16.88;;;8.27;;
43823;SDS011;29470;53.550;9.926;2023-01-24T08:04:55;17.58;;;7.93;;
43823;SDS011;29470;53.550;9.926;2023-01-24T08:09:59;16.35;;;8.40;;
43823;SDS011;29470;53.550;9.926;2023-01-24T08:15:03;16.48;;;8.15;;
43823;SDS011;29470;53.550;9.926;2023-01-24T08:20:08;16.98;;;8.52;;
43823;SDS011;29470;53.550;9.926;2023-01-24T08:25:13;16.73;;;8.52;;
43823;SDS011;29470;53.550;9.926;2023-01-24T08:30:16;15.35;;;7.78;;
43823;SDS011;29470;53.550;9.926;2023-01-24T08:35:19;17.63;;;8.55;;
43823;SDS011;29470;53.550;9.926;2023-01-24T08:40:24;15.15;;;8.07;;
43823;SDS011;29470;53.550;9.926;2023-01-24T08:45:30;14.18;;;7.40;;
43823;SDS011;29470;53.550;9.926;2023-01-24T08:50:33;17.77;;;8.02;;
43823;SDS011;29470;53.550;9.926;2023-01-24T08:55:37;15.15;;;8.15;;
43823;SDS011;29470;53.550;9.926;2023-01-24T09:00:40;14.20;;;7.85;;
43823;SDS011;29470;53.550;9.926;2023-01-24T09:05:43;15.18;;;8.07;;
43823;SDS011;29470;53.550;9.926;2023-01-24T09:10:48;15.20;;;8.68;;
43823;SDS011;29470;53.550;9.926;2023-01-24T09:15:51;14.65;;;8.48;;
43823;SDS011;29470;53.550;9.926;2023-01-24T09:20:54;26.75;;;11.43;;
43823;SDS011;29470;53.550;9.926;2023-01-24T09:25:58;15.90;;;7.50;;
43823;SDS011;29470;53.550;9.926;2023-01-24T09:31:01;14.43;;;8.27;;
43823;SDS011;29470;53.550;9.926;2023-01-24T09:36:04;14.38;;;8.18;;
43823;SDS011;29470;53.550;9.926;2023-01-24T09:41:11;15.18;;;7.93;;
43823;SDS011;29470;53.550;9.926;2023-01-24T09:46:25;15.68;;;8.40;;
43823;SDS011;29470;53.550;9.926;2023-01-24T09:51:31;17.17;;;8.35;;
43823;SDS011;29470;53.550;9.926;2023-01-24T09:56:41;13.60;;;7.53;;
43823;SDS011;29470;53.550;9.926;2023-01-24T10:01:46;13.25;;;7.72;;
43823;SDS011;29470;53.550;9.926;2023-01-24T10:06:53;24.60;;;9.07;;
43823;SDS011;29470;53.550;9.926;2023-01-24T10:12:29;57.88;;;12.20;;
43823;SDS011;29470;53.550;9.926;2023-01-24T10:17:46;19.38;;;9.30;;
43823;SDS011;29470;53.550;9.926;2023-01-24T10:23:08;15.23;;;8.27;;
43823;SDS011;29470;53.550;9.926;2023-01-24T10:28:18;18.38;;;8.75;;
43823;SDS011;29470;53.550;9.926;2023-01-24T10:33:26;15.27;;;8.20;;
43823;SDS011;29470;53.550;9.926;2023-01-24T10:38:33;16.75;;;8.68;;
43823;SDS011;29470;53.550;9.926;2023-01-24T10:43:38;17.48;;;8.40;;
43823;SDS011;29470;53.550;9.926;2023-01-24T10:48:43;26.13;;;10.52;;
43823;SDS011;29470;53.550;9.926;2023-01-24T10:53:48;16.23;;;7.95;;
43823;SDS011;29470;53.550;9.926;2023-01-24T10:58:56;19.25;;;8.70;;
43823;SDS011;29470;53.550;9.926;2023-01-24T11:04:11;15.27;;;8.13;;
43823;SDS011;29470;53.550;9.926;2023-01-24T11:09:17;83.20;;;14.30;;
43823;SDS011;29470;53.550;9.926;2023-01-24T11:14:24;14.75;;;7.85;;
43823;SDS011;29470;53.550;9.926;2023-01-24T11:19:30;15.13;;;8.48;;
43823;SDS011;29470;53.550;9.926;2023-01-24T11:24:34;15.98;;;8.18;;
43823;SDS011;29470;53.550;9.926;2023-01-24T11:29:46;19.30;;;8.35;;
43823;SDS011;29470;53.550;9.926;2023-01-24T11:35:08;21.05;;;9.00;;
43823;SDS011;29470;53.550;9.926;2023-01-24T11:40:17;19.20;;;8.25;;
43823;SDS011;29470;53.550;9.926;2023-01-24T11:45:31;17.52;;;9.38;;
43823;SDS011;29470;53.550;9.926;2023-01-24T11:50:45;15.15;;;8.85;;
43823;SDS011;29470;53.550;9.926;2023-01-24T11:56:14;20.17;;;8.90;;
43823;SDS011;29470;53.550;9.926;2023-01-24T12:01:28;18.50;;;9.48;;
43823;SDS011;29470;53.550;9.926;2023-01-24T12:06:40;15.10;;;8.40;;
43823;SDS011;29470;53.550;9.926;2023-01-24T12:11:53;15.82;;;8.15;;
43823;SDS011;29470;53.550;9.926;2023-01-24T12:17:07;15.55;;;8.55;;
43823;SDS011;29470;53.550;9.926;2023-01-24T12:22:26;18.98;;;8.93;;
43823;SDS011;29470;53.550;9.926;2023-01-24T12:27:32;23.00;;;10.40;;
43823;SDS011;29470;53.550;9.926;2023-01-24T12:32:40;21.38;;;10.30;;
43823;SDS011;29470;53.550;9.926;2023-01-24T12:37:49;17.92;;;9.43;;
43823;SDS011;29470;53.550;9.926;2023-01-24T12:43:12;40.22;;;20.60;;
43823;SDS011;29470;53.550;9.926;2023-01-24T12:48:21;16.15;;;9.73;;
43823;SDS011;29470;53.550;9.926;2023-01-24T12:53:37;19.15;;;10.10;;
43823;SDS011;29470;53.550;9.926;2023-01-24T12:58:46;16.90;;;8.43;;
43823;SDS011;29470;53.550;9.926;2023-01-24T13:03:55;22.25;;;10.10;;
43823;SDS011;29470;53.550;9.926;2023-01-24T13:09:10;29.52;;;10.02;;
43823;SDS011;29470;53.550;9.926;2023-01-24T13:14:21;23.27;;;10.57;;
43823;SDS011;29470;53.550;9.926;2023-01-24T13:19:33;20.03;;;9.57;;
43823;SDS011;29470;53.550;9.926;2023-01-24T13:24:46;16.30;;;9.10;;
43823;SDS011;29470;53.550;9.926;2023-01-24T13:30:02;20.00;;;9.90;;
43823;SDS011;29470;53.550;9.926;2023-01-24T13:35:18;21.55;;;10.30;;
43823;SDS011;29470;53.550;9.926;2023-01-24T13:40:25;21.15;;;10.50;;
43823;SDS011;29470;53.550;9.926;2023-01-24T13:45:48;18.77;;;9.23;;
43823;SDS011;29470;53.550;9.926;2023-01-24T14:02:24;17.88;;;9.93;;
43823;SDS011;29470;53.550;9.926;2023-01-24T14:07:30;18.67;;;9.68;;
43823;SDS011;29470;53.550;9.926;2023-01-24T14:12:51;18.90;;;11.07;;
43823;SDS011;29470;53.550;9.926;2023-01-24T14:17:55;19.08;;;9.95;;
43823;SDS011;29470;53.550;9.926;2023-01-24T14:22:59;15.80;;;8.88;;
43823;SDS011;29470;53.550;9.926;2023-01-24T14:28:12;62.17;;;20.67;;
43823;SDS011;29470;53.550;9.926;2023-01-24T14:33:29;17.20;;;9.38;;
43823;SDS011;29470;53.550;9.926;2023-01-24T14:38:39;20.30;;;10.23;;
43823;SDS011;29470;53.550;9.926;2023-01-24T14:43:43;19.15;;;10.10;;
43823;SDS011;29470;53.550;9.926;2023-01-24T14:48:46;19.42;;;10.35;;
43823;SDS011;29470;53.550;9.926;2023-01-24T14:53:49;19.20;;;10.13;;
43823;SDS011;29470;53.550;9.926;2023-01-24T14:58:54;20.17;;;10.30;;
43823;SDS011;29470;53.550;9.926;2023-01-24T15:04:19;23.95;;;11.50;;
43823;SDS011;29470;53.550;9.926;2023-01-24T15:09:23;22.90;;;11.43;;
43823;SDS011;29470;53.550;9.926;2023-01-24T15:14:27;18.00;;;9.75;;
43823;SDS011;29470;53.550;9.926;2023-01-24T15:19:31;24.10;;;10.30;;
43823;SDS011;29470;53.550;9.926;2023-01-24T15:24:34;21.67;;;11.63;;
43823;SDS011;29470;53.550;9.926;2023-01-24T15:29:43;25.45;;;11.45;;
43823;SDS011;29470;53.550;9.926;2023-01-24T15:34:47;22.60;;;11.60;;
43823;SDS011;29470;53.550;9.926;2023-01-24T15:39:53;24.73;;;11.82;;
43823;SDS011;29470;53.550;9.926;2023-01-24T15:45:02;23.25;;;12.38;;
43823;SDS011;29470;53.550;9.926;2023-01-24T15:50:13;22.77;;;12.30;;
43823;SDS011;29470;53.550;9.926;2023-01-24T15:55:38;23.25;;;11.10;;
43823;SDS011;29470;53.550;9.926;2023-01-24T16:00:50;22.90;;;11.55;;
43823;SDS011;29470;53.550;9.926;2023-01-24T16:05:54;23.27;;;11.60;;
43823;SDS011;29470;53.550;9.926;2023-01-24T16:10:57;23.50;;;12.48;;
43823;SDS011;29470;53.550;9.926;2023-01-24T16:16:03;21.60;;;11.05;;
43823;SDS011;29470;53.550;9.926;2023-01-24T16:21:08;22.40;;;11.23;;
43823;SDS011;29470;53.550;9.926;2023-01-24T16:26:16;24.70;;;12.68;;
43823;SDS011;29470;53.550;9.926;2023-01-24T16:31:24;22.50;;;11.77;;
43823;SDS011;29470;53.550;9.926;2023-01-24T16:36:27;25.48;;;12.18;;
43823;SDS011;29470;53.550;9.926;2023-01-24T16:41:31;20.90;;;10.85;;
43823;SDS011;29470;53.550;9.926;2023-01-24T16:46:35;24.27;;;12.13;;
43823;SDS011;29470;53.550;9.926;2023-01-24T16:51:39;21.90;;;10.90;;
43823;SDS011;29470;53.550;9.926;2023-01-24T16:56:42;23.73;;;10.73;;
43823;SDS011;29470;53.550;9.926;2023-01-24T17:01:47;23.17;;;12.25;;
43823;SDS011;29470;53.550;9.926;2023-01-24T17:06:50;29.27;;;14.00;;
43823;SDS011;29470;53.550;9.926;2023-01-24T17:11:53;26.55;;;12.55;;
43823;SDS011;29470;53.550;9.926;2023-01-24T17:17:15;28.10;;;12.95;;
43823;SDS011;29470;53.550;9.926;2023-01-24T17:22:18;27.95;;;12.55;;
43823;SDS011;29470;53.550;9.926;2023-01-24T17:27:20;22.73;;;12.70;;
43823;SDS011;29470;53.550;9.926;2023-01-24T17:32:25;30.85;;;13.25;;
43823;SDS011;29470;53.550;9.926;2023-01-24T17:37:27;23.73;;;12.23;;
43823;SDS011;29470;53.550;9.926;2023-01-24T17:42:30;22.42;;;11.85;;
43823;SDS011;29470;53.550;9.926;2023-01-24T17:47:34;24.90;;;11.88;;
43823;SDS011;29470;53.550;9.926;2023-01-24T17:52:37;26.33;;;13.00;;
43823;SDS011;29470;53.550;9.926;2023-01-24T17:57:40;26.40;;;13.20;;
43823;SDS011;29470;53.550;9.926;2023-01-24T18:02:46;30.83;;;14.25;;
43823;SDS011;29470;53.550;9.926;2023-01-24T18:07:48;28.10;;;14.35;;
43823;SDS011;29470;53.550;9.926;2023-01-24T18:12:51;26.90;;;13.70;;
43823;SDS011;29470;53.550;9.926;2023-01-24T18:17:55;26.65;;;13.20;;
43823;SDS011;29470;53.550;9.926;2023-01-24T18:22:58;36.70;;;17.80;;
43823;SDS011;29470;53.550;9.926;2023-01-24T18:28:01;28.98;;;13.80;;
43823;SDS011;29470;53.550;9.926;2023-01-24T18:33:08;30.67;;;15.02;;
43823;SDS011;29470;53.550;9.926;2023-01-24T18:38:10;32.85;;;15.05;;
43823;SDS011;29470;53.550;9.926;2023-01-24T18:43:13;30.50;;;15.00;;
43823;SDS011;29470;53.550;9.926;2023-01-24T18:48:19;29.70;;;16.00;;
43823;SDS011;29470;53.550;9.926;2023-01-24T18:53:22;55.72;;;37.10;;
43823;SDS011;29470;53.550;9.926;2023-01-24T18:58:25;33.30;;;16.25;;
43823;SDS011;29470;53.550;9.926;2023-01-24T19:03:30;30.55;;;16.27;;
43823;SDS011;29470;53.550;9.926;2023-01-24T19:08:33;29.10;;;14.95;;
43823;SDS011;29470;53.550;9.926;2023-01-24T19:13:36;33.35;;;15.23;;
43823;SDS011;29470;53.550;9.926;2023-01-24T19:18:40;31.58;;;15.48;;
43823;SDS011;29470;53.550;9.926;2023-01-24T19:23:43;35.13;;;17.02;;
43823;SDS011;29470;53.550;9.926;2023-01-24T19:28:51;35.63;;;15.80;;
43823;SDS011;29470;53.550;9.926;2023-01-24T19:33:56;35.35;;;16.05;;
43823;SDS011;29470;53.550;9.926;2023-01-24T19:38:59;33.67;;;16.17;;
43823;SDS011;29470;53.550;9.926;2023-01-24T19:44:03;37.13;;;16.27;;
43823;SDS011;29470;53.550;9.926;2023-01-24T19:49:23;35.10;;;15.85;;
43823;SDS011;29470;53.550;9.926;2023-01-24T19:54:26;34.38;;;14.68;;
43823;SDS011;29470;53.550;9.926;2023-01-24T19:59:29;33.00;;;15.80;;
43823;SDS011;29470;53.550;9.926;2023-01-24T20:04:33;32.50;;;14.48;;
43823;SDS011;29470;53.550;9.926;2023-01-24T20:09:52;34.33;;;15.45;;
43823;SDS011;29470;53.550;9.926;2023-01-24T20:14:54;29.02;;;15.82;;
43823;SDS011;29470;53.550;9.926;2023-01-24T20:19:59;30.38;;;14.35;;
43823;SDS011;29470;53.550;9.926;2023-01-24T20:25:02;33.55;;;15.40;;
43823;SDS011;29470;53.550;9.926;2023-01-24T20:30:19;29.48;;;15.40;;
43823;SDS011;29470;53.550;9.926;2023-01-24T20:35:24;29.35;;;15.15;;
43823;SDS011;29470;53.550;9.926;2023-01-24T20:40:28;29.15;;;14.05;;
43823;SDS011;29470;53.550;9.926;2023-01-24T20:45:31;28.00;;;14.27;;
43823;SDS011;29470;53.550;9.926;2023-01-24T20:50:38;28.85;;;13.45;;
43823;SDS011;29470;53.550;9.926;2023-01-24T20:55:41;30.02;;;14.48;;
43823;SDS011;29470;53.550;9.926;2023-01-24T21:00:47;31.23;;;14.52;;
43823;SDS011;29470;53.550;9.926;2023-01-24T21:05:51;30.70;;;13.95;;
43823;SDS011;29470;53.550;9.926;2023-01-24T21:10:54;30.95;;;14.45;;
43823;SDS011;29470;53.550;9.926;2023-01-24T21:16:04;27.60;;;13.77;;
43823;SDS011;29470;53.550;9.926;2023-01-24T21:21:09;28.45;;;14.38;;
43823;SDS011;29470;53.550;9.926;2023-01-24T21:26:12;25.25;;;13.65;;
43823;SDS011;29470;53.550;9.926;2023-01-24T21:31:17;26.25;;;13.40;;
43823;SDS011;29470;53.550;9.926;2023-01-24T21:36:23;29.98;;;14.75;;
43823;SDS011;29470;53.550;9.926;2023-01-24T21:41:28;24.60;;;12.02;;
43823;SDS011;29470;53.550;9.926;2023-01-24T21:46:50;25.92;;;12.43;;
43823;SDS011;29470;53.550;9.926;2023-01-24T21:51:55;28.90;;;12.68;;
43823;SDS011;29470;53.550;9.926;2023-01-24T21:57:00;24.10;;;11.65;;
43823;SDS011;29470;53.550;9.926;2023-01-24T22:02:33;26.60;;;12.98;;
43823;SDS011;29470;53.550;9.926;2023-01-24T22:07:38;23.95;;;12.10;;
43823;SDS011;29470;53.550;9.926;2023-01-24T22:12:41;30.35;;;13.70;;
43823;SDS011;29470;53.550;9.926;2023-01-24T22:17:44;25.10;;;12.38;;
43823;SDS011;29470;53.550;9.926;2023-01-24T22:22:55;28.25;;;13.73;;
43823;SDS011;29470;53.550;9.926;2023-01-24T22:28:11;32.80;;;12.70;;
43823;SDS011;29470;53.550;9.926;2023-01-24T22:33:17;29.70;;;12.70;;
43823;SDS011;29470;53.550;9.926;2023-01-24T22:38:23;29.00;;;12.85;;
43823;SDS011;29470;53.550;9.926;2023-01-24T22:43:27;25.40;;;12.38;;
43823;SDS011;29470;53.550;9.926;2023-01-24T22:48:30;26.90;;;12.93;;
43823;SDS011;29470;53.550;9.926;2023-01-24T22:53:34;24.85;;;12.63;;
43823;SDS011;29470;53.550;9.926;2023-01-24T22:58:37;25.98;;;12.10;;
43823;SDS011;29470;53.550;9.926;2023-01-24T23:03:40;25.23;;;12.18;;
43823;SDS011;29470;53.550;9.926;2023-01-24T23:08:44;24.00;;;11.88;;
43823;SDS011;29470;53.550;9.926;2023-01-24T23:13:49;26.98;;;12.20;;
43823;SDS011;29470;53.550;9.926;2023-01-24T23:19:25;25.23;;;12.20;;
43823;SDS011;29470;53.550;9.926;2023-01-24T23:24:50;27.45;;;12.85;;
43823;SDS011;29470;53.550;9.926;2023-01-24T23:29:57;24.23;;;11.73;;
43823;SDS011;29470;53.550;9.926;2023-01-24T23:35:08;28.35;;;12.82;;
43823;SDS011;29470;53.550;9.926;2023-01-24T23:40:14;25.20;;;12.20;;
43823;SDS011;29470;53.550;9.926;2023-01-24T23:45:18;28.38;;;13.07;;
43823;SDS011;29470;53.550;9.926;2023-01-24T23:50:21;25.45;;;12.50;;
43823;SDS011;29470;53.550;9.926;2023-01-24T23:55:25;29.35;;;13.38;;
